createdAt,value
2023-04-21T00:01:39.487Z,87.31
2023-04-21T00:04:08.254Z,87.50
2023-04-21T00:06:36.632Z,87.71
2023-04-21T00:09:05.430Z,87.54
2023-04-21T00:11:33.169Z,86.82
2023-04-21T00:14:00.860Z,86.60
2023-04-21T00:16:28.663Z,87.01
2023-04-21T00:18:58.084Z,87.14
2023-04-21T00:21:25.776Z,86.85
2023-04-21T00:23:53.448Z,86.53
2023-04-21T00:26:21.332Z,86.67
2023-04-21T00:28:48.990Z,86.31
2023-04-21T00:31:16.785Z,86.81
2023-04-21T00:33:44.532Z,87.76
2023-04-21T00:36:13.622Z,88.36
2023-04-21T00:38:41.287Z,88.53
2023-04-21T00:41:08.958Z,88.99
2023-04-21T00:43:36.730Z,89.86
2023-04-21T00:46:04.876Z,90.64
2023-04-21T00:48:32.615Z,91.07
2023-04-21T00:51:00.422Z,91.33
2023-04-21T00:53:29.972Z,91.75
2023-04-21T00:55:57.733Z,92.45
2023-04-21T00:58:25.459Z,93.32
2023-04-21T01:00:53.304Z,93.64
2023-04-21T01:03:21.246Z,94.42
2023-04-21T01:05:48.976Z,94.29
2023-04-21T01:08:17.034Z,94.64
2023-04-21T01:10:46.158Z,94.88
2023-04-21T01:13:14.225Z,96.04
2023-04-21T01:15:42.012Z,96.44
2023-04-21T01:18:09.725Z,96.63
2023-04-21T01:20:39.023Z,96.82
2023-04-21T01:23:08.219Z,96.99
2023-04-21T01:25:36.058Z,96.80
2023-04-21T01:28:03.901Z,96.32
2023-04-21T01:30:31.488Z,96.27
2023-04-21T01:33:00.705Z,96.44
2023-04-21T01:35:28.457Z,95.82
2023-04-21T01:37:56.257Z,96.08
2023-04-21T01:40:25.406Z,95.83
2023-04-21T01:42:53.146Z,95.47
2023-04-21T01:45:20.959Z,95.68
2023-04-21T01:47:48.599Z,95.74
2023-04-21T01:50:16.485Z,95.54
2023-04-21T01:52:44.116Z,95.34
2023-04-21T01:55:11.813Z,95.31
2023-04-21T01:57:41.083Z,95.92
2023-04-21T02:00:10.323Z,95.71
2023-04-21T02:02:38.320Z,95.64
2023-04-21T02:05:07.010Z,95.96
2023-04-21T02:07:34.795Z,96.29
2023-04-21T02:10:03.032Z,96.05
2023-04-21T02:12:30.888Z,95.64
2023-04-21T02:14:59.828Z,95.96
2023-04-21T02:17:27.567Z,95.80
2023-04-21T02:19:55.259Z,95.35
2023-04-21T02:22:23.132Z,96.11
2023-04-21T02:24:50.946Z,95.23
2023-04-21T02:27:18.613Z,95.48
2023-04-21T02:29:46.410Z,95.36
2023-04-21T02:32:25.102Z,95.41
2023-04-21T02:34:53.928Z,95.06
2023-04-21T02:37:22.122Z,95.60
2023-04-21T02:39:49.843Z,94.56
2023-04-21T02:42:17.482Z,96.33
2023-04-21T02:44:45.150Z,97.84
2023-04-21T02:47:12.896Z,98.19
2023-04-21T02:49:45.253Z,95.17
2023-04-21T02:52:13.123Z,96.28
2023-04-21T02:54:40.947Z,97.33
2023-04-21T02:57:08.647Z,97.19
2023-04-21T02:59:36.289Z,96.37
2023-04-21T03:02:04.291Z,96.50
2023-04-21T03:04:33.941Z,95.20
2023-04-21T03:07:03.169Z,95.36
2023-04-21T03:09:30.829Z,94.08
2023-04-21T03:11:58.458Z,93.85
2023-04-21T03:14:26.192Z,94.59
2023-04-21T03:16:53.915Z,94.47
2023-04-21T03:19:21.730Z,91.62
2023-04-21T03:21:49.565Z,89.88
2023-04-21T03:24:19.407Z,90.67
2023-04-21T03:26:47.104Z,91.16
2023-04-21T03:29:15.087Z,91.36
2023-04-21T03:31:42.876Z,90.31
2023-04-21T03:34:10.649Z,89.73
2023-04-21T03:36:38.420Z,89.48
2023-04-21T03:39:20.409Z,89.72
2023-04-21T03:41:49.816Z,90.39
2023-04-21T03:44:17.789Z,89.81
2023-04-21T03:46:45.516Z,89.91
2023-04-21T03:49:13.421Z,90.26
2023-04-21T03:51:41.195Z,89.38
2023-04-21T03:54:09.168Z,89.98
2023-04-21T03:56:37.054Z,90.01
2023-04-21T03:59:06.526Z,91.17
2023-04-21T04:01:35.475Z,93.17
2023-04-21T04:04:03.471Z,94.11
2023-04-21T04:06:32.059Z,94.53
2023-04-21T04:09:03.267Z,93.60
2023-04-21T04:11:31.101Z,90.08
2023-04-21T04:13:58.907Z,89.55
2023-04-21T04:16:28.880Z,89.70
2023-04-21T04:18:56.904Z,90.75
2023-04-21T04:21:24.622Z,91.59
2023-04-21T04:23:53.530Z,92.55
2023-04-21T04:26:22.591Z,90.66
2023-04-21T04:28:50.630Z,90.05
2023-04-21T04:31:18.669Z,90.52
2023-04-21T04:33:47.952Z,91.43
2023-04-21T04:36:15.821Z,90.48
2023-04-21T04:38:43.557Z,91.56
2023-04-21T04:41:12.835Z,92.13
2023-04-21T04:43:40.545Z,91.49
2023-04-21T04:46:09.481Z,93.20
2023-04-21T04:48:37.280Z,91.62
2023-04-21T04:51:06.908Z,91.73
2023-04-21T04:53:34.647Z,92.27
2023-04-21T04:56:03.177Z,92.83
2023-04-21T04:58:30.829Z,91.57
2023-04-21T05:00:58.700Z,92.75
2023-04-21T05:03:26.667Z,92.72
2023-04-21T05:05:54.519Z,92.91
2023-04-21T05:08:23.624Z,91.05
2023-04-21T05:10:51.304Z,89.61
2023-04-21T05:13:19.034Z,89.82
2023-04-21T05:15:46.707Z,91.26
2023-04-21T05:18:14.495Z,91.69
2023-04-21T05:20:42.493Z,92.49
2023-04-21T05:23:10.241Z,93.98
2023-04-21T05:25:39.503Z,92.92
2023-04-21T05:28:07.356Z,92.66
2023-04-21T05:30:35.203Z,92.31
2023-04-21T05:33:02.866Z,92.18
2023-04-21T05:35:31.640Z,93.17
2023-04-21T05:37:59.327Z,93.62
2023-04-21T05:40:27.043Z,93.12
2023-04-21T05:42:56.142Z,93.03
2023-04-21T05:45:23.914Z,93.47
2023-04-21T05:47:51.690Z,91.44
2023-04-21T05:50:19.513Z,94.04
2023-04-21T05:52:47.293Z,92.74
2023-04-21T05:55:15.331Z,91.29
2023-04-21T05:57:43.257Z,93.11
2023-04-21T06:00:13.827Z,91.20
2023-04-21T06:02:41.866Z,90.37
2023-04-21T06:05:10.567Z,91.30
2023-04-21T06:07:38.350Z,90.99
2023-04-21T06:10:07.219Z,91.07
2023-04-21T06:12:35.043Z,92.61
2023-04-21T06:15:02.885Z,93.15
2023-04-21T06:17:32.162Z,92.20
2023-04-21T06:19:59.852Z,93.53
2023-04-21T06:22:29.266Z,93.25
2023-04-21T06:24:58.285Z,93.12
2023-04-21T06:27:26.319Z,91.86
2023-04-21T06:29:56.099Z,91.16
2023-04-21T06:32:23.852Z,90.61
2023-04-21T06:34:52.945Z,90.48
2023-04-21T06:37:20.614Z,90.52
2023-04-21T06:39:48.331Z,90.14
2023-04-21T06:42:16.136Z,90.06
2023-04-21T06:44:43.876Z,91.11
2023-04-21T06:47:11.744Z,91.58
2023-04-21T06:49:39.612Z,90.32
2023-04-21T06:52:09.073Z,91.83
2023-04-21T06:54:37.094Z,90.63
2023-04-21T06:57:05.353Z,91.70
2023-04-21T06:59:33.105Z,91.58
2023-04-21T07:02:01.264Z,91.06
2023-04-21T07:04:32.160Z,90.91
2023-04-21T07:07:02.938Z,91.78
2023-04-21T07:09:33.879Z,92.09
2023-04-21T07:12:02.905Z,90.58
2023-04-21T07:14:30.885Z,88.29
2023-04-21T07:16:58.731Z,84.68
2023-04-21T07:19:26.945Z,83.17
2023-04-21T07:21:54.707Z,81.30
2023-04-21T07:24:28.303Z,79.82
2023-04-21T07:26:57.602Z,75.82
2023-04-21T07:29:25.393Z,74.45
2023-04-21T07:31:54.657Z,74.74
2023-04-21T07:34:23.756Z,75.61
2023-04-21T07:36:53.084Z,75.84
2023-04-21T07:39:21.369Z,71.72
2023-04-21T07:41:49.758Z,73.96
2023-04-21T07:44:18.999Z,68.03
2023-04-21T07:46:46.732Z,64.78
2023-04-21T07:49:14.518Z,61.25
2023-04-21T07:51:42.273Z,62.98
2023-04-21T07:54:10.230Z,60.31
2023-04-21T07:56:38.083Z,62.47
2023-04-21T07:59:05.870Z,63.35
2023-04-21T08:01:35.030Z,61.24
2023-04-21T08:04:02.896Z,60.48
2023-04-21T08:06:33.441Z,55.80
2023-04-21T08:09:01.566Z,57.28
2023-04-21T08:11:29.494Z,57.13
2023-04-21T08:13:57.600Z,59.21
2023-04-21T08:16:25.447Z,58.23
2023-04-21T08:18:54.695Z,56.39
2023-04-21T08:21:22.375Z,56.53
2023-04-21T08:23:50.970Z,54.34
2023-04-21T08:26:18.906Z,55.43
2023-04-21T08:28:48.738Z,51.58
2023-04-21T08:31:16.590Z,53.35
2023-04-21T08:33:58.055Z,53.88
2023-04-21T08:36:32.016Z,50.70
2023-04-21T08:39:00.430Z,49.72
2023-04-21T08:41:28.430Z,50.90
2023-04-21T08:43:56.210Z,53.54
2023-04-21T08:46:25.480Z,51.92
2023-04-21T08:48:55.288Z,54.12
2023-04-21T08:51:24.766Z,52.41
2023-04-21T08:53:55.820Z,50.24
2023-04-21T08:56:25.664Z,53.30
2023-04-21T08:58:53.499Z,53.57
2023-04-21T09:01:21.250Z,49.82
2023-04-21T09:03:49.197Z,50.50
2023-04-21T09:06:17.795Z,53.39
2023-04-21T09:08:56.451Z,55.76
2023-04-21T09:11:24.465Z,55.64
2023-04-21T09:13:53.040Z,55.54
2023-04-21T09:16:22.872Z,55.81
2023-04-21T09:18:51.792Z,53.90
2023-04-21T09:21:23.156Z,51.82
2023-04-21T09:23:52.212Z,54.46
2023-04-21T09:26:24.008Z,56.63
2023-04-21T09:28:53.701Z,54.25
2023-04-21T09:31:25.301Z,52.40
2023-04-21T09:33:58.821Z,51.52
2023-04-21T09:36:29.564Z,51.85
2023-04-21T09:41:31.702Z,51.26
2023-04-21T09:44:01.476Z,53.19
2023-04-21T09:46:31.432Z,51.23
2023-04-21T09:49:02.648Z,48.27
2023-04-21T09:51:56.389Z,48.95
2023-04-21T09:54:29.828Z,48.16
2023-04-21T09:57:02.413Z,49.49
2023-04-21T09:59:33.536Z,48.43
2023-04-21T10:02:02.263Z,47.99
2023-04-21T10:04:32.271Z,47.74
2023-04-21T10:07:01.286Z,49.28
2023-04-21T10:09:34.382Z,51.66
2023-04-21T10:12:05.953Z,49.25
2023-04-21T10:14:36.268Z,50.19
2023-04-21T10:17:06.118Z,49.79
2023-04-21T10:19:40.067Z,47.75
2023-04-21T10:22:08.597Z,48.36
2023-04-21T10:24:39.190Z,47.75
2023-04-21T10:27:11.406Z,50.17
2023-04-21T10:29:54.707Z,49.32
2023-04-21T10:32:41.763Z,45.35
2023-04-21T10:35:14.776Z,46.80
2023-04-21T10:37:43.597Z,47.13
2023-04-21T10:40:44.298Z,48.48
2023-04-21T10:43:49.747Z,47.09
2023-04-21T10:46:34.097Z,48.47
2023-04-21T10:49:10.172Z,49.53
2023-04-21T10:52:05.793Z,47.48
2023-04-21T10:54:41.657Z,49.37
2023-04-21T10:57:12.069Z,50.54
2023-04-21T10:59:41.734Z,50.61
2023-04-21T11:02:12.179Z,47.97
2023-04-21T11:04:45.306Z,47.11
2023-04-21T11:07:14.801Z,46.48
2023-04-21T11:09:43.512Z,48.92
2023-04-21T11:12:13.927Z,47.31
2023-04-21T11:14:44.305Z,46.30
2023-04-21T11:17:13.375Z,46.14
2023-04-21T11:19:41.514Z,45.48
2023-04-21T11:22:09.289Z,46.52
2023-04-21T11:24:37.026Z,47.03
2023-04-21T11:27:05.334Z,45.83
2023-04-21T11:29:34.204Z,44.26
2023-04-21T11:32:03.310Z,45.39
2023-04-21T11:34:31.092Z,49.34
2023-04-21T11:36:58.872Z,46.32
2023-04-21T11:39:26.485Z,44.33
2023-04-21T11:41:54.491Z,45.73
2023-04-21T11:44:33.673Z,46.39
2023-04-21T11:47:01.771Z,45.17
2023-04-21T11:49:32.311Z,44.67
2023-04-21T11:52:00.175Z,45.48
2023-04-21T11:54:30.419Z,42.56
2023-04-21T11:56:59.144Z,44.14
2023-04-21T11:59:29.594Z,42.94
2023-04-21T12:01:57.265Z,43.18
2023-04-21T12:04:27.473Z,41.33
2023-04-21T12:07:01.458Z,42.99
2023-04-21T12:09:30.748Z,40.78
2023-04-21T12:11:59.909Z,41.41
2023-04-21T12:14:27.833Z,41.49
2023-04-21T12:16:57.407Z,42.74
2023-04-21T12:19:26.637Z,42.60
2023-04-21T12:21:56.143Z,43.08
2023-04-21T12:24:26.040Z,41.78
2023-04-21T12:26:53.795Z,41.40
2023-04-21T12:29:21.577Z,45.48
2023-04-21T12:31:49.304Z,42.86
2023-04-21T12:34:17.356Z,41.87
2023-04-21T12:36:45.586Z,44.03
2023-04-21T12:39:14.179Z,42.66
2023-04-21T12:41:43.287Z,41.33
2023-04-21T12:44:10.970Z,42.29
2023-04-21T12:46:38.751Z,42.50
2023-04-21T12:49:07.613Z,42.11
2023-04-21T12:51:35.480Z,40.83
2023-04-21T12:54:03.458Z,42.57
2023-04-21T12:56:31.413Z,43.71
2023-04-21T12:59:00.558Z,43.62
2023-04-21T13:01:28.398Z,44.02
2023-04-21T13:03:56.205Z,43.21
2023-04-21T13:06:24.142Z,42.46
2023-04-21T13:08:52.136Z,41.01
2023-04-21T13:11:20.049Z,41.03
2023-04-21T13:13:47.784Z,42.66
2023-04-21T13:16:17.273Z,41.82
2023-04-21T13:18:46.391Z,42.67
2023-04-21T13:21:14.266Z,43.40
2023-04-21T13:23:42.442Z,42.13
2023-04-21T13:26:10.500Z,41.45
2023-04-21T13:28:38.639Z,41.66
2023-04-21T13:31:07.174Z,41.49
2023-04-21T13:33:36.480Z,40.55
2023-04-21T13:36:04.663Z,39.54
2023-04-21T13:38:33.348Z,39.56
2023-04-21T13:41:01.220Z,44.11
2023-04-21T13:43:29.202Z,40.82
2023-04-21T13:45:58.823Z,44.05
2023-04-21T13:48:26.686Z,40.97
2023-04-21T13:50:55.901Z,44.32
2023-04-21T13:53:23.665Z,43.81
2023-04-21T13:55:52.829Z,42.91
2023-04-21T13:58:20.958Z,45.43
2023-04-21T14:00:48.716Z,42.87
2023-04-21T14:03:16.776Z,41.45
2023-04-21T14:05:44.842Z,40.84
2023-04-21T14:08:13.961Z,39.61
2023-04-21T14:10:41.739Z,38.70
2023-04-21T14:13:12.817Z,39.96
2023-04-21T14:15:45.369Z,39.70
2023-04-21T14:18:13.253Z,38.35
2023-04-21T14:20:40.987Z,40.49
2023-04-21T14:23:08.648Z,37.68
2023-04-21T14:25:37.973Z,38.58
2023-04-21T14:28:07.406Z,39.13
2023-04-21T14:30:36.180Z,38.28
2023-04-21T14:33:04.039Z,38.57
2023-04-21T14:35:32.036Z,38.78
2023-04-21T14:38:00.025Z,38.46
2023-04-21T14:40:27.787Z,39.80
2023-04-21T14:42:56.870Z,40.67
2023-04-21T14:45:24.803Z,39.82
2023-04-21T14:47:52.725Z,38.81
2023-04-21T14:50:20.696Z,39.33
2023-04-21T14:52:49.717Z,40.27
2023-04-21T14:55:17.909Z,40.26
2023-04-21T14:57:46.964Z,42.08
2023-04-21T15:00:16.981Z,41.95
2023-04-21T15:02:44.812Z,40.81
2023-04-21T15:05:12.818Z,40.83
2023-04-21T15:07:40.939Z,39.96
2023-04-21T15:10:11.203Z,40.98
2023-04-21T15:12:39.534Z,41.71
2023-04-21T15:15:08.486Z,42.66
2023-04-21T15:17:37.675Z,41.35
2023-04-21T15:20:06.611Z,40.19
2023-04-21T15:22:34.668Z,40.42
2023-04-21T15:25:02.493Z,40.38
2023-04-21T15:27:30.344Z,40.46
2023-04-21T15:29:58.424Z,40.30
2023-04-21T15:32:26.368Z,41.15
2023-04-21T15:34:55.570Z,42.19
2023-04-21T15:37:25.676Z,42.39
2023-04-21T15:39:53.841Z,42.80
2023-04-21T15:42:21.704Z,42.45
2023-04-21T15:44:49.553Z,41.94
2023-04-21T15:47:17.394Z,41.66
2023-04-21T15:49:45.408Z,42.96
2023-04-21T15:52:14.757Z,44.72
2023-04-21T15:54:42.560Z,45.95
2023-04-21T15:57:10.189Z,46.35
2023-04-21T15:59:37.983Z,46.44
2023-04-21T16:02:05.798Z,45.45
2023-04-21T16:04:33.868Z,45.99
2023-04-21T16:07:01.767Z,45.84
2023-04-21T16:09:30.887Z,46.41
2023-04-21T16:11:58.771Z,47.33
2023-04-21T16:14:26.505Z,47.99
2023-04-21T16:16:54.301Z,53.99
2023-04-21T16:19:22.039Z,56.77
2023-04-21T16:21:50.659Z,59.09
2023-04-21T16:24:18.582Z,63.52
2023-04-21T16:26:47.743Z,66.55
2023-04-21T16:29:15.441Z,70.78
2023-04-21T16:31:43.209Z,72.52
2023-04-21T16:34:13.714Z,70.44
2023-04-21T16:36:41.619Z,69.88
2023-04-21T16:39:09.354Z,69.96
2023-04-21T16:41:37.242Z,70.20
2023-04-21T16:44:06.341Z,54.56
2023-04-21T16:46:34.560Z,57.20
2023-04-21T16:49:02.423Z,61.11
2023-04-21T16:51:30.961Z,62.19
2023-04-21T16:53:58.724Z,64.05
2023-04-21T16:56:26.641Z,64.67
2023-04-21T16:58:54.651Z,64.96
2023-04-21T17:01:23.850Z,64.11
2023-04-21T17:03:51.711Z,65.53
2023-04-21T17:06:21.020Z,67.15
2023-04-21T17:08:49.281Z,66.66
2023-04-21T17:11:17.115Z,66.94
2023-04-21T17:13:44.974Z,67.57
2023-04-21T17:16:12.906Z,68.54
2023-04-21T17:18:42.280Z,68.07
2023-04-21T17:21:10.114Z,70.30
2023-04-21T17:23:37.883Z,69.85
2023-04-21T17:26:06.403Z,69.58
2023-04-21T17:28:34.172Z,70.25
2023-04-21T17:31:14.511Z,69.27
2023-04-21T17:33:44.690Z,70.11
2023-04-21T17:36:12.565Z,70.15
2023-04-21T17:38:41.800Z,71.24
2023-04-21T17:41:09.572Z,72.38
2023-04-21T17:43:37.660Z,72.46
2023-04-21T17:46:06.929Z,72.29
2023-04-21T17:48:35.128Z,73.22
2023-04-21T17:51:04.663Z,74.28
2023-04-21T17:53:32.626Z,74.03
2023-04-21T17:56:01.025Z,74.45
2023-04-21T17:58:29.523Z,75.67
2023-04-21T18:00:57.486Z,75.91
2023-04-21T18:03:25.684Z,74.80
2023-04-21T18:05:53.539Z,74.73
2023-04-21T18:08:22.749Z,74.95
2023-04-21T18:10:50.499Z,75.41
2023-04-21T18:13:18.813Z,76.73
2023-04-21T18:15:46.910Z,78.38
2023-04-21T18:18:14.719Z,80.54
2023-04-21T18:20:43.017Z,82.32
2023-04-21T18:23:11.347Z,81.67
2023-04-21T18:25:43.210Z,81.11
2023-04-21T18:28:12.549Z,80.99
2023-04-21T18:30:42.191Z,82.85
2023-04-21T18:33:10.997Z,83.19
2023-04-21T18:35:39.128Z,83.28
2023-04-21T18:38:08.293Z,83.82
2023-04-21T18:40:37.407Z,83.50
2023-04-21T18:43:06.684Z,82.52
2023-04-21T18:45:34.931Z,81.67
2023-04-21T18:48:03.001Z,79.68
2023-04-21T18:50:32.298Z,79.16
2023-04-21T18:52:59.987Z,79.00
2023-04-21T18:55:27.814Z,79.28
2023-04-21T18:57:55.668Z,80.10
2023-04-21T19:00:26.174Z,79.58
2023-04-21T19:02:54.361Z,80.00
2023-04-21T19:05:22.299Z,79.83
2023-04-21T19:07:50.074Z,80.47
2023-04-21T19:10:18.153Z,80.63
2023-04-21T19:12:45.945Z,81.23
2023-04-21T19:15:13.978Z,81.27
2023-04-21T19:17:43.237Z,81.88
2023-04-21T19:20:12.758Z,79.82
2023-04-21T19:22:40.602Z,77.78
2023-04-21T19:25:08.847Z,74.63
2023-04-21T19:27:37.021Z,73.50
2023-04-21T19:30:05.950Z,73.34
2023-04-21T19:32:34.062Z,75.35
2023-04-21T19:35:03.353Z,75.69
2023-04-21T19:37:34.424Z,75.50
2023-04-21T19:40:03.385Z,74.28
2023-04-21T19:42:31.333Z,74.83
2023-04-21T19:44:59.276Z,75.69
2023-04-21T19:47:27.317Z,76.34
2023-04-21T19:49:55.053Z,77.81
2023-04-21T19:52:24.120Z,79.31
2023-04-21T19:54:51.896Z,78.82
2023-04-21T19:57:19.685Z,79.11
2023-04-21T19:59:49.028Z,80.02
2023-04-21T20:02:17.077Z,79.33
2023-04-21T20:04:44.919Z,79.09
2023-04-21T20:07:12.618Z,79.09
2023-04-21T20:09:41.753Z,79.50
2023-04-21T20:12:09.723Z,79.98
2023-04-21T20:14:39.001Z,80.11
2023-04-21T20:17:06.759Z,80.53
2023-04-21T20:19:35.734Z,80.99
2023-04-21T20:22:03.799Z,81.32
2023-04-21T20:24:31.468Z,81.62
2023-04-21T20:27:00.505Z,82.11
2023-04-21T20:29:28.177Z,82.04
2023-04-21T20:31:57.406Z,81.46
2023-04-21T20:34:25.585Z,82.20
2023-04-21T20:36:54.856Z,82.38
2023-04-21T20:39:23.071Z,83.05
2023-04-21T20:42:00.993Z,82.90
2023-04-21T20:44:38.710Z,83.94
2023-04-21T20:47:08.178Z,84.12
2023-04-21T20:49:36.351Z,84.02
2023-04-21T20:52:04.089Z,84.66
2023-04-21T20:54:34.440Z,85.16
2023-04-21T20:57:02.645Z,85.27
2023-04-21T20:59:30.629Z,85.29
2023-04-21T21:01:59.754Z,85.40
2023-04-21T21:04:27.587Z,85.48
2023-04-21T21:06:56.045Z,85.80
2023-04-21T21:09:24.069Z,85.80
2023-04-21T21:11:51.794Z,86.36
2023-04-21T21:14:19.513Z,86.91
2023-04-21T21:16:47.307Z,86.57
2023-04-21T21:19:16.508Z,86.50
2023-04-21T21:21:44.214Z,87.22
2023-04-21T21:24:11.846Z,87.40
2023-04-21T21:26:42.498Z,87.75
2023-04-21T21:29:10.669Z,87.34
2023-04-21T21:31:38.870Z,87.75
2023-04-21T21:34:06.821Z,87.84
2023-04-21T21:36:36.125Z,87.14
2023-04-21T21:39:03.808Z,86.78
2023-04-21T21:41:31.530Z,86.67
2023-04-21T21:43:59.137Z,86.76
2023-04-21T21:46:26.891Z,87.10
2023-04-21T21:48:54.756Z,87.09
2023-04-21T21:51:22.397Z,86.54
2023-04-21T21:53:51.421Z,86.24
2023-04-21T21:56:19.149Z,86.42
2023-04-21T21:58:46.973Z,85.56
2023-04-21T22:01:18.053Z,84.77
2023-04-21T22:03:47.366Z,85.19
2023-04-21T22:06:17.170Z,86.17
2023-04-21T22:08:45.603Z,86.27
2023-04-21T22:11:14.758Z,86.07
2023-04-21T22:13:42.423Z,86.54
2023-04-21T22:16:10.303Z,86.39
2023-04-21T22:18:38.142Z,86.26
2023-04-21T22:21:06.296Z,86.66
2023-04-21T22:23:34.073Z,87.42
2023-04-21T22:26:01.865Z,87.25
2023-04-21T22:28:30.968Z,87.89
2023-04-21T22:30:58.783Z,87.51
2023-04-21T22:33:26.581Z,86.93
2023-04-21T22:35:54.256Z,86.68
2023-04-21T22:38:21.987Z,86.48
2023-04-21T22:40:49.932Z,86.46
2023-04-21T22:43:17.682Z,85.83
2023-04-21T22:45:46.774Z,86.24
2023-04-21T22:48:14.901Z,86.34
2023-04-21T22:50:44.766Z,86.67
2023-04-21T22:53:13.337Z,85.59
2023-04-21T22:55:41.095Z,85.71
2023-04-21T22:58:08.937Z,84.17
2023-04-21T23:00:36.771Z,85.61
2023-04-21T23:03:06.013Z,86.17
2023-04-21T23:05:33.809Z,86.43
2023-04-21T23:08:01.681Z,85.44
2023-04-21T23:10:30.231Z,86.37
2023-04-21T23:12:58.139Z,87.22
2023-04-21T23:15:27.151Z,87.95
2023-04-21T23:17:54.947Z,86.26
2023-04-21T23:20:24.011Z,87.29
2023-04-21T23:22:52.229Z,87.46
2023-04-21T23:25:20.195Z,87.49
2023-04-21T23:27:47.841Z,86.34
2023-04-21T23:30:15.789Z,85.63
2023-04-21T23:32:43.687Z,84.99
2023-04-21T23:35:11.513Z,86.04
2023-04-21T23:37:40.858Z,86.16
2023-04-21T23:40:11.238Z,85.66
2023-04-21T23:42:39.401Z,86.09
2023-04-21T23:45:08.751Z,86.97
2023-04-21T23:47:36.433Z,86.62
2023-04-21T23:50:04.579Z,87.43
2023-04-21T23:52:32.418Z,87.99
2023-04-21T23:55:01.404Z,87.86
2023-04-21T23:57:29.107Z,87.17
2023-04-21T23:59:56.758Z,86.99
